createdAt,value
2022-11-06T00:02:20.519Z,100912.20
2022-11-06T00:04:52.763Z,100909.66
2022-11-06T00:07:24.837Z,100910.20
2022-11-06T00:09:56.517Z,100908.03
2022-11-06T00:12:28.285Z,100913.42
2022-11-06T00:15:00.162Z,100924.91
2022-11-06T00:17:31.850Z,100928.86
2022-11-06T00:20:03.888Z,100931.03
2022-11-06T00:22:37.239Z,100934.08
2022-11-06T00:25:10.354Z,100928.34
2022-11-06T00:27:43.846Z,100928.17
2022-11-06T00:30:15.831Z,100930.31
2022-11-06T00:32:47.664Z,100930.67
2022-11-06T00:35:19.526Z,100925.29
2022-11-06T00:37:51.268Z,100918.66
2022-11-06T00:40:22.946Z,100921.36
2022-11-06T00:42:58.833Z,100920.45
2022-11-06T00:45:30.643Z,100920.27
2022-11-06T00:48:02.385Z,100921.89
2022-11-06T00:50:35.003Z,100922.44
2022-11-06T00:53:07.281Z,100922.64
2022-11-06T00:55:39.045Z,100923.34
2022-11-06T00:58:11.070Z,100923.52
2022-11-06T01:00:43.148Z,100923.16
2022-11-06T01:03:14.802Z,100923.34
2022-11-06T01:05:46.560Z,100920.12
2022-11-06T01:08:18.268Z,100920.29
2022-11-06T01:57:26.525Z,100917.97
2022-11-06T01:59:58.934Z,100922.79
2022-11-06T02:02:31.206Z,100922.61
2022-11-06T02:05:03.327Z,100920.99
2022-11-06T02:07:37.009Z,100920.27
2022-11-06T02:10:10.518Z,100923.15
2022-11-06T02:13:08.979Z,100923.34
2022-11-06T02:15:47.557Z,100917.77
2022-11-06T02:18:45.664Z,100916.48
2022-11-06T02:22:05.690Z,100917.37
2022-11-06T02:24:52.014Z,100917.73
2022-11-06T02:27:25.815Z,100916.85
2022-11-06T02:30:03.158Z,100909.85
2022-11-06T02:32:40.952Z,100906.98
2022-11-06T02:35:22.600Z,100905.89
2022-11-06T02:37:58.929Z,100911.45
2022-11-06T02:40:35.101Z,100911.36
2022-11-06T02:43:09.597Z,100917.70
2022-11-06T02:45:47.023Z,100918.63
2022-11-06T02:48:21.309Z,100915.77
2022-11-06T02:50:56.080Z,100918.09
2022-11-06T02:53:29.072Z,100920.78
2022-11-06T02:56:03.465Z,100916.45
2022-11-06T02:58:47.748Z,100915.85
2022-11-06T03:01:25.441Z,100922.70
2022-11-06T03:04:02.529Z,100920.02
2022-11-06T03:06:38.993Z,100923.27
2022-11-06T03:09:15.565Z,100922.71
2022-11-06T03:11:52.194Z,100925.87
2022-11-06T03:14:34.011Z,100923.77
2022-11-06T03:17:16.231Z,100924.30
2022-11-06T03:19:52.183Z,100921.60
2022-11-06T03:22:31.884Z,100912.83
2022-11-06T03:25:15.292Z,100913.55
2022-11-06T03:27:56.607Z,100916.20
2022-11-06T03:30:28.709Z,100915.16
2022-11-06T03:33:08.060Z,100916.23
2022-11-06T03:35:45.629Z,100916.33
2022-11-06T03:38:21.075Z,100921.70
2022-11-06T03:40:57.332Z,100920.68
2022-11-06T03:43:34.022Z,100918.92
2022-11-06T03:46:08.913Z,100922.83
2022-11-06T03:48:45.057Z,100921.00
2022-11-06T03:51:22.889Z,100921.58
2022-11-06T03:53:59.189Z,100921.01
2022-11-06T03:56:36.806Z,100925.11
2022-11-06T03:59:10.493Z,100924.20
2022-11-06T04:01:47.746Z,100925.86
2022-11-06T04:04:24.927Z,100916.94
2022-11-06T04:07:03.230Z,100919.43
2022-11-06T04:09:56.247Z,100913.33
2022-11-06T04:12:49.028Z,100913.17
2022-11-06T04:15:22.665Z,100913.71
2022-11-06T04:17:54.571Z,100905.30
2022-11-06T04:20:47.869Z,100903.50
2022-11-06T04:23:26.377Z,100902.08
2022-11-06T04:26:25.598Z,100902.61
2022-11-06T04:29:08.258Z,100902.23
2022-11-06T04:31:48.700Z,100908.88
2022-11-06T04:34:28.799Z,100904.74
2022-11-06T04:37:10.014Z,100910.47
2022-11-06T04:39:51.192Z,100910.48
2022-11-06T04:42:30.689Z,100908.13
2022-11-06T04:45:05.995Z,100905.19
2022-11-06T04:47:39.859Z,100904.30
2022-11-06T04:50:15.511Z,100901.41
2022-11-06T04:52:48.635Z,100899.08
2022-11-06T04:55:21.202Z,100900.15
2022-11-06T04:57:52.927Z,100897.80
2022-11-06T05:00:24.698Z,100899.58
2022-11-06T05:02:56.769Z,100902.29
2022-11-06T05:05:28.512Z,100899.05
2022-11-06T05:08:00.143Z,100903.36
2022-11-06T05:10:31.854Z,100903.52
2022-11-06T05:13:03.556Z,100901.66
2022-11-06T05:15:35.278Z,100901.09
2022-11-06T05:18:07.924Z,100908.64
2022-11-06T05:20:39.633Z,100908.27
2022-11-06T05:23:11.416Z,100912.88
2022-11-06T05:25:43.269Z,100912.46
2022-11-06T05:28:15.345Z,100905.50
2022-11-06T05:30:47.961Z,100910.15
2022-11-06T05:33:19.603Z,100905.13
2022-11-06T05:35:51.248Z,100909.59
2022-11-06T05:38:25.287Z,100909.58
2022-11-06T05:40:56.954Z,100907.81
2022-11-06T05:43:28.867Z,100906.19
2022-11-06T05:46:01.295Z,100910.64
2022-11-06T05:48:33.052Z,100913.71
2022-11-06T05:51:06.420Z,100908.70
2022-11-06T05:53:39.871Z,100907.38
2022-11-06T05:56:11.808Z,100907.43
2022-11-06T05:58:43.588Z,100913.20
2022-11-06T06:01:15.623Z,100914.92
2022-11-06T06:03:47.904Z,100910.84
2022-11-06T06:06:20.084Z,100915.52
2022-11-06T06:08:51.752Z,100913.35
2022-11-06T06:11:23.458Z,100918.21
2022-11-06T06:13:55.381Z,100921.05
2022-11-06T06:16:27.144Z,100922.84
2022-11-06T06:18:59.123Z,100922.86
2022-11-06T06:21:30.873Z,100922.16
2022-11-06T06:24:02.912Z,100925.55
2022-11-06T06:26:34.616Z,100927.73
2022-11-06T06:29:06.362Z,100929.37
2022-11-06T06:31:38.104Z,100933.92
2022-11-06T06:34:09.765Z,100938.25
2022-11-06T06:36:41.656Z,100930.90
2022-11-06T06:39:13.385Z,100939.15
2022-11-06T06:41:45.083Z,100940.05
2022-11-06T06:44:17.922Z,100941.85
2022-11-06T06:46:49.579Z,100937.01
2022-11-06T06:49:21.264Z,100943.83
2022-11-06T06:51:53.112Z,100942.40
2022-11-06T06:54:28.072Z,100942.38
2022-11-06T06:57:00.103Z,100943.86
2022-11-06T06:59:32.267Z,100940.86
2022-11-06T07:02:04.714Z,100939.45
2022-11-06T07:04:36.615Z,100937.30
2022-11-06T07:07:08.421Z,100939.42
2022-11-06T07:09:40.314Z,100942.18
2022-11-06T07:12:12.221Z,100948.11
2022-11-06T07:14:44.000Z,100943.50
2022-11-06T07:17:15.733Z,100944.06
2022-11-06T07:19:47.825Z,100947.65
2022-11-06T07:22:29.587Z,100947.31
2022-11-06T07:25:07.668Z,100947.51
2022-11-06T07:27:41.475Z,100951.98
2022-11-06T07:30:15.593Z,100947.88
2022-11-06T07:32:49.541Z,100943.95
2022-11-06T07:35:21.425Z,100940.77
2022-11-06T07:37:53.328Z,100944.38
2022-11-06T07:40:25.100Z,100943.30
2022-11-06T07:42:56.922Z,100946.54
2022-11-06T07:45:29.425Z,100953.73
2022-11-06T07:48:01.322Z,100949.80
2022-11-06T07:50:33.607Z,100951.77
2022-11-06T07:53:06.346Z,100945.66
2022-11-06T07:55:42.231Z,100948.16
2022-11-06T07:58:14.802Z,100953.92
2022-11-06T08:00:50.923Z,100950.36
2022-11-06T08:03:25.488Z,100943.19
2022-11-06T08:05:59.917Z,100940.34
2022-11-06T08:08:33.387Z,100939.25
2022-11-06T08:11:08.032Z,100941.42
2022-11-06T08:13:42.126Z,100937.67
2022-11-06T08:16:18.170Z,100940.36
2022-11-06T08:18:50.559Z,100942.52
2022-11-06T08:21:21.368Z,100942.89
2022-11-06T08:23:53.216Z,100941.11
2022-11-06T08:26:25.148Z,100941.30
2022-11-06T08:28:57.750Z,100944.52
2022-11-06T08:31:29.882Z,100947.41
2022-11-06T08:34:01.960Z,100946.15
2022-11-06T08:36:37.726Z,100945.96
2022-11-06T08:39:12.042Z,100942.90
2022-11-06T08:41:45.671Z,100944.86
2022-11-06T08:44:16.599Z,100947.02
2022-11-06T08:46:52.228Z,100935.13
2022-11-06T08:49:25.485Z,100941.41
2022-11-06T08:51:59.120Z,100941.39
2022-11-06T08:54:33.368Z,100946.23
2022-11-06T08:57:07.872Z,100947.83
2022-11-06T08:59:40.897Z,100945.09
2022-11-06T09:02:16.580Z,100939.83
2022-11-06T09:04:49.493Z,100938.88
2022-11-06T09:07:19.793Z,100939.00
2022-11-06T09:09:51.747Z,100943.98
2022-11-06T09:12:23.828Z,100929.21
2022-11-06T09:14:56.388Z,100937.64
2022-11-06T09:17:28.843Z,100937.98
2022-11-06T09:20:02.247Z,100941.11
2022-11-06T09:22:35.108Z,100937.23
2022-11-06T09:25:09.562Z,100937.80
2022-11-06T09:27:51.165Z,100932.87
2022-11-06T09:30:29.906Z,100931.45
2022-11-06T09:33:03.677Z,100930.44
2022-11-06T09:35:37.514Z,100924.88
2022-11-06T09:38:12.913Z,100923.95
2022-11-06T09:40:52.855Z,100918.38
2022-11-06T09:46:43.917Z,100916.85
2022-11-06T09:49:25.740Z,100920.00
2022-11-06T09:52:05.997Z,100919.02
2022-11-06T09:54:44.672Z,100921.02
2022-11-06T09:57:24.665Z,100918.83
2022-11-06T09:59:59.456Z,100914.39
2022-11-06T10:02:35.270Z,100914.25
2022-11-06T10:05:17.436Z,100909.34
2022-11-06T10:07:52.917Z,100905.71
2022-11-06T10:10:32.357Z,100901.40
2022-11-06T10:13:17.980Z,100892.67
2022-11-06T10:15:59.388Z,100890.95
2022-11-06T10:18:43.180Z,100891.38
2022-11-06T10:21:24.713Z,100888.30
2022-11-06T10:24:00.890Z,100876.73
2022-11-06T10:26:41.135Z,100880.79
2022-11-06T10:29:44.802Z,100881.20
2022-11-06T10:32:35.710Z,100878.35
2022-11-06T10:35:15.399Z,100875.05
2022-11-06T10:37:55.394Z,100870.02
2022-11-06T10:40:31.781Z,100865.14
2022-11-06T10:43:15.660Z,100865.52
2022-11-06T10:45:53.202Z,100858.41
2022-11-06T10:48:32.510Z,100856.33
2022-11-06T10:51:25.052Z,100854.77
2022-11-06T10:54:10.885Z,100847.44
2022-11-06T10:56:56.930Z,100833.46
2022-11-06T10:59:29.177Z,100828.65
2022-11-06T11:02:03.587Z,100827.98
2022-11-06T11:04:36.549Z,100820.04
2022-11-06T11:07:20.543Z,100818.38
2022-11-06T11:09:55.394Z,100819.28
2022-11-06T11:12:32.953Z,100815.69
2022-11-06T11:15:12.846Z,100817.61
2022-11-06T11:18:05.167Z,100816.94
2022-11-06T11:20:39.341Z,100809.48
2022-11-06T11:23:18.252Z,100809.67
2022-11-06T11:25:52.051Z,100802.80
2022-11-06T11:28:38.215Z,100803.17
2022-11-06T11:31:14.012Z,100799.59
2022-11-06T11:33:58.454Z,100794.21
2022-11-06T11:36:50.491Z,100788.96
2022-11-06T11:39:26.273Z,100783.83
2022-11-06T11:42:22.685Z,100782.54
2022-11-06T11:45:19.545Z,100777.98
2022-11-06T11:47:53.095Z,100771.26
2022-11-06T11:50:34.242Z,100770.40
2022-11-06T11:53:20.242Z,100764.77
2022-11-06T11:55:54.058Z,100765.27
2022-11-06T11:58:29.433Z,100759.34
2022-11-06T12:01:03.857Z,100757.45
2022-11-06T12:03:42.772Z,100755.52
2022-11-06T12:06:19.011Z,100754.36
2022-11-06T12:08:54.451Z,100754.45
2022-11-06T12:11:30.210Z,100752.70
2022-11-06T12:14:33.137Z,100753.07
2022-11-06T12:17:11.171Z,100750.77
2022-11-06T12:19:48.412Z,100747.57
2022-11-06T12:22:28.122Z,100746.06
2022-11-06T12:25:07.024Z,100745.81
2022-11-06T12:27:43.370Z,100747.56
2022-11-06T12:30:18.963Z,100741.91
2022-11-06T12:33:01.092Z,100739.37
2022-11-06T12:35:38.699Z,100737.26
2022-11-06T12:38:22.825Z,100737.45
2022-11-06T12:41:00.583Z,100734.16
2022-11-06T12:43:40.159Z,100729.17
2022-11-06T12:46:37.015Z,100727.09
2022-11-06T12:49:31.045Z,100729.06
2022-11-06T12:52:29.150Z,100726.95
2022-11-06T12:55:19.079Z,100731.30
2022-11-06T12:58:08.396Z,100725.37
2022-11-06T13:00:52.994Z,100724.26
2022-11-06T13:04:19.749Z,100719.82
2022-11-06T13:07:27.321Z,100722.20
2022-11-06T13:10:20.087Z,100722.24
2022-11-06T13:13:00.489Z,100722.73
2022-11-06T13:15:40.246Z,100717.64
2022-11-06T13:18:22.257Z,100721.87
2022-11-06T13:20:58.676Z,100718.05
2022-11-06T13:23:36.776Z,100716.46
2022-11-06T13:26:16.789Z,100713.09
2022-11-06T13:28:56.106Z,100712.70
2022-11-06T13:31:37.297Z,100710.77
2022-11-06T13:34:17.817Z,100708.48
2022-11-06T13:36:51.623Z,100713.00
2022-11-06T13:39:32.787Z,100709.96
2022-11-06T13:42:06.504Z,100704.27
2022-11-06T13:44:39.116Z,100706.29
2022-11-06T13:47:21.258Z,100704.29
2022-11-06T13:50:03.757Z,100697.36
2022-11-06T13:52:41.108Z,100694.20
2022-11-06T13:55:25.527Z,100688.65
2022-11-06T13:58:17.353Z,100689.69
2022-11-06T14:01:01.889Z,100684.86
2022-11-06T14:04:22.239Z,100683.69
2022-11-06T14:06:58.970Z,100687.38
2022-11-06T14:09:36.610Z,100686.66
2022-11-06T14:12:16.006Z,100683.88
2022-11-06T14:14:49.709Z,100685.76
2022-11-06T14:17:26.552Z,100675.44
2022-11-06T14:20:27.856Z,100682.69
2022-11-06T14:23:33.208Z,100679.50
2022-11-06T14:26:10.034Z,100676.70
2022-11-06T14:28:43.724Z,100674.52
2022-11-06T14:31:53.126Z,100672.75
2022-11-06T14:34:32.727Z,100678.02
2022-11-06T14:37:38.374Z,100673.66
2022-11-06T14:40:26.674Z,100670.17
2022-11-06T14:42:58.999Z,100670.06
2022-11-06T14:45:31.327Z,100665.54
2022-11-06T14:48:03.511Z,100670.98
2022-11-06T14:50:42.250Z,100673.73
2022-11-06T14:53:24.305Z,100675.05
2022-11-06T14:56:04.050Z,100668.84
2022-11-06T14:58:40.567Z,100667.55
2022-11-06T15:01:27.609Z,100661.27
2022-11-06T15:04:03.785Z,100661.99
2022-11-06T15:06:46.077Z,100666.56
2022-11-06T15:09:48.287Z,100659.86
2022-11-06T15:12:40.665Z,100657.02
2022-11-06T15:15:21.062Z,100656.98
2022-11-06T15:17:54.949Z,100654.60
2022-11-06T15:20:31.560Z,100654.84
2022-11-06T15:23:14.967Z,100653.05
2022-11-06T15:26:07.410Z,100650.65
2022-11-06T15:28:47.945Z,100650.05
2022-11-06T15:31:21.731Z,100646.73
2022-11-06T15:34:00.648Z,100648.07
2022-11-06T15:36:38.629Z,100643.59
2022-11-06T15:39:26.192Z,100645.45
2022-11-06T15:41:58.893Z,100645.11
2022-11-06T15:44:31.378Z,100637.94
2022-11-06T15:47:02.360Z,100639.23
2022-11-06T15:49:35.024Z,100637.75
2022-11-06T15:52:08.839Z,100636.34
2022-11-06T15:54:44.457Z,100635.61
2022-11-06T15:57:23.335Z,100635.14
2022-11-06T16:00:10.440Z,100637.70
2022-11-06T16:02:53.622Z,100631.75
2022-11-06T16:05:28.754Z,100632.77
2022-11-06T16:08:03.324Z,100631.95
2022-11-06T16:10:38.629Z,100632.32
2022-11-06T16:13:14.750Z,100629.70
2022-11-06T16:16:07.050Z,100628.98
2022-11-06T16:18:46.710Z,100628.31
2022-11-06T16:21:22.568Z,100625.92
2022-11-06T16:24:01.104Z,100624.71
2022-11-06T16:26:46.109Z,100623.68
2022-11-06T16:29:24.071Z,100619.18
2022-11-06T16:32:05.286Z,100612.92
2022-11-06T16:34:42.054Z,100612.16
2022-11-06T16:37:40.549Z,100610.63
2022-11-06T16:40:44.544Z,100606.58
2022-11-06T16:43:20.303Z,100604.91
2022-11-06T16:45:58.780Z,100602.14
2022-11-06T16:48:37.683Z,100595.80
2022-11-06T16:51:15.720Z,100593.77
2022-11-06T16:53:55.764Z,100590.34
2022-11-06T16:56:32.307Z,100587.20
2022-11-06T16:59:07.307Z,100578.26
2022-11-06T17:01:44.972Z,100584.36
2022-11-06T17:04:27.145Z,100584.89
2022-11-06T17:06:59.986Z,100584.39
2022-11-06T17:09:34.623Z,100582.94
2022-11-06T17:12:11.777Z,100586.54
2022-11-06T17:14:47.401Z,100584.85
2022-11-06T17:17:30.720Z,100584.75
2022-11-06T17:20:04.048Z,100584.10
2022-11-06T17:22:36.429Z,100587.91
2022-11-06T17:25:09.403Z,100586.23
2022-11-06T17:27:42.963Z,100585.84
2022-11-06T17:30:17.984Z,100584.58
2022-11-06T17:32:50.061Z,100587.31
2022-11-06T17:35:24.784Z,100579.16
2022-11-06T17:37:57.572Z,100583.44
2022-11-06T17:40:28.782Z,100579.91
2022-11-06T17:43:01.033Z,100576.13
2022-11-06T17:45:33.309Z,100576.30
2022-11-06T17:48:05.987Z,100574.73
2022-11-06T17:50:52.677Z,100573.91
2022-11-06T17:53:24.797Z,100578.73
2022-11-06T17:55:56.942Z,100578.54
2022-11-06T17:58:28.831Z,100583.90
2022-11-06T18:01:09.007Z,100578.75
2022-11-06T18:03:45.973Z,100582.48
2022-11-06T18:06:19.330Z,100582.64
2022-11-06T18:08:56.607Z,100584.76
2022-11-06T18:11:28.997Z,100591.07
2022-11-06T18:14:02.449Z,100590.63
2022-11-06T18:16:43.179Z,100592.10
2022-11-06T18:19:19.411Z,100592.89
2022-11-06T18:21:51.681Z,100592.35
2022-11-06T18:24:23.646Z,100591.38
2022-11-06T18:26:56.279Z,100585.84
2022-11-06T18:29:28.231Z,100584.84
2022-11-06T18:32:00.407Z,100584.17
2022-11-06T18:34:32.149Z,100589.25
2022-11-06T18:37:04.092Z,100585.27
2022-11-06T18:39:35.796Z,100583.30
2022-11-06T18:42:07.812Z,100582.45
2022-11-06T18:44:41.426Z,100589.64
2022-11-06T18:47:15.838Z,100588.16
2022-11-06T18:49:48.490Z,100588.57
2022-11-06T18:52:44.438Z,100586.55
2022-11-06T18:55:12.580Z,100583.15
2022-11-06T18:57:45.781Z,100583.06
2022-11-06T19:00:18.819Z,100581.65
2022-11-06T19:02:51.269Z,100573.98
2022-11-06T19:05:23.684Z,100577.90
2022-11-06T19:08:00.120Z,100574.85
2022-11-06T19:10:32.615Z,100573.60
2022-11-06T19:13:04.380Z,100565.85
2022-11-06T19:15:36.237Z,100570.95
2022-11-06T19:18:08.507Z,100572.33
2022-11-06T19:20:42.442Z,100570.21
2022-11-06T19:23:16.931Z,100569.27
2022-11-06T19:25:58.755Z,100565.64
2022-11-06T19:28:37.784Z,100568.02
2022-11-06T19:31:09.605Z,100565.77
2022-11-06T19:33:41.396Z,100564.30
2022-11-06T19:36:13.280Z,100560.80
2022-11-06T19:38:45.089Z,100557.14
2022-11-06T19:41:16.746Z,100556.87
2022-11-06T19:43:48.587Z,100551.81
2022-11-06T19:46:24.979Z,100547.47
2022-11-06T19:48:58.998Z,100548.76
2022-11-06T19:51:30.891Z,100546.25
2022-11-06T19:54:03.147Z,100552.81
2022-11-06T19:56:35.116Z,100552.46
2022-11-06T19:59:07.207Z,100549.61
2022-11-06T20:01:39.671Z,100544.02
2022-11-06T20:04:11.205Z,100539.94
2022-11-06T20:06:43.521Z,100538.88
2022-11-06T20:09:16.390Z,100538.61
2022-11-06T20:11:47.400Z,100533.93
2022-11-06T20:14:21.887Z,100532.36
2022-11-06T20:16:55.245Z,100529.00
2022-11-06T20:19:28.246Z,100528.10
2022-11-06T20:22:03.197Z,100528.73
2022-11-06T20:24:38.012Z,100526.20
2022-11-06T20:27:11.643Z,100523.90
2022-11-06T20:29:44.232Z,100524.08
2022-11-06T20:32:19.016Z,100523.13
2022-11-06T20:34:51.863Z,100523.52
2022-11-06T20:37:24.679Z,100521.61
2022-11-06T20:39:58.236Z,100523.42
2022-11-06T20:42:31.040Z,100521.61
2022-11-06T20:45:03.565Z,100524.26
2022-11-06T20:47:35.928Z,100520.88
2022-11-06T20:50:08.673Z,100526.27
2022-11-06T20:52:39.517Z,100535.06
2022-11-06T20:55:12.568Z,100534.86
2022-11-06T20:57:44.814Z,100537.58
2022-11-06T21:00:18.712Z,100536.83
2022-11-06T21:02:51.775Z,100536.02
2022-11-06T21:05:25.240Z,100534.52
2022-11-06T21:07:58.455Z,100532.90
2022-11-06T21:10:30.777Z,100536.45
2022-11-06T21:13:03.099Z,100537.13
2022-11-06T21:15:35.605Z,100537.78
2022-11-06T21:18:07.964Z,100536.38
2022-11-06T21:20:41.876Z,100536.43
2022-11-06T21:23:15.018Z,100534.88
2022-11-06T21:25:47.060Z,100533.29
2022-11-06T21:28:19.134Z,100525.11
2022-11-06T21:30:51.737Z,100527.20
2022-11-06T21:33:23.620Z,100525.45
2022-11-06T21:36:04.966Z,100527.15
2022-11-06T21:38:37.429Z,100524.27
2022-11-06T21:41:10.481Z,100522.24
2022-11-06T21:43:43.038Z,100522.29
2022-11-06T21:46:14.236Z,100519.77
2022-11-06T21:48:47.616Z,100516.64
2022-11-06T21:51:23.307Z,100512.31
2022-11-06T21:54:10.085Z,100510.80
2022-11-06T21:56:43.518Z,100506.13
2022-11-06T21:59:17.640Z,100504.42
2022-11-06T22:01:49.493Z,100503.20
2022-11-06T22:04:21.819Z,100502.10
2022-11-06T22:06:53.639Z,100502.97
2022-11-06T22:09:26.229Z,100498.64
2022-11-06T22:12:00.205Z,100492.55
2022-11-06T22:14:32.035Z,100496.10
2022-11-06T22:17:04.089Z,100491.15
2022-11-06T22:19:36.030Z,100485.20
2022-11-06T22:22:08.592Z,100485.17
2022-11-06T22:24:38.973Z,100483.92
2022-11-06T22:27:10.626Z,100476.02
2022-11-06T22:29:42.280Z,100476.65
2022-11-06T22:32:14.275Z,100474.84
2022-11-06T22:34:47.376Z,100472.95
2022-11-06T22:37:21.830Z,100466.81
2022-11-06T22:39:53.502Z,100462.27
2022-11-06T22:42:25.371Z,100456.87
2022-11-06T22:44:58.792Z,100446.66
2022-11-06T22:47:31.411Z,100442.85
2022-11-06T22:50:03.888Z,100444.43
2022-11-06T22:52:36.658Z,100441.73
2022-11-06T22:55:09.585Z,100434.73
2022-11-06T22:57:41.208Z,100437.50
2022-11-06T23:00:16.589Z,100431.06
2022-11-06T23:02:48.416Z,100434.42
2022-11-06T23:05:20.484Z,100430.61
2022-11-06T23:07:52.491Z,100432.21
2022-11-06T23:10:29.704Z,100429.77
2022-11-06T23:13:01.422Z,100431.65
2022-11-06T23:15:34.274Z,100424.85
2022-11-06T23:18:04.920Z,100421.48
2022-11-06T23:20:37.098Z,100418.50
2022-11-06T23:23:09.219Z,100411.53
2022-11-06T23:25:41.078Z,100408.96
2022-11-06T23:28:12.807Z,100404.27
2022-11-06T23:30:44.493Z,100405.37
2022-11-06T23:33:16.631Z,100405.35
2022-11-06T23:35:47.837Z,100396.79
2022-11-06T23:38:19.541Z,100392.70
2022-11-06T23:40:51.226Z,100387.86
2022-11-06T23:43:22.886Z,100383.95
2022-11-06T23:45:55.286Z,100377.83
2022-11-06T23:48:26.972Z,100374.80
2022-11-06T23:51:02.389Z,100370.65
2022-11-06T23:53:34.486Z,100373.07
2022-11-06T23:56:09.562Z,100372.52
2022-11-06T23:58:42.056Z,100376.77
